Terminal Aerodrome Forecast
Issued by NWS Central Illinois

Home | Current Version | Previous Version | Text Only | Print | Product List | Glossary On
Versions: 1 2 3 4 5 6 7 8 9 10 11 12 13 14 15 16 17 18
000
FTUS43 KILX 301700
TAFSPI
TAF
KSPI 301729Z 3018/3118 21012KT P6SM VCTS SCT025CB BKN035
     FM310500 22005KT 5SM BR SCT035
      TEMPO 3109/3113 3SM BR SCT005
     FM311400 21005KT P6SM SCT025=

USA.gov is the U.S. government's official web portal to all federal, state and local government web resources and services.